Terminal Aerodrome Forecast
Issued by NWS

Home | Current Version | Previous Version | Text Only | Print | Product List | Glossary On
Versions: 1 2 3 4 5 6 7 8 9 10 11 12
000
FTUS45 KRIW 191126
TAFCPR
TAF
KCPR 191126Z 1912/2012 22016G26KT P6SM SCT100
     FM191500 22020G30KT P6SM SCT070 BKN100
     FM200200 22014KT P6SM SCT100=

USA.gov is the U.S. government's official web portal to all federal, state and local government web resources and services.